Time;durP1;ratioP1;P1;durP2;ratioP2;P2;SDS_P1;SDS_P2;PMS_P1;PMS_P2;Temp;Humidity;BMP_temperature;BMP_pressure;BME280_temperature;BME280_humidity;BME280_pressure;Samples;Min_cycle;Max_cycle;Signal;HPM_P1;HPM_P2
2023/06/02 00:01:01;;;;;;;4.63;2.75;;;;;;;10.40;100.00;101973.41;6237565;23;20087;-80
2023/06/02 00:03:31;;;;;;;6.47;3.30;;;;;;;10.29;100.00;101961.00;6245932;23;20008;-81
2023/06/02 00:06:11;;;;;;;3.90;2.63;;;;;;;10.26;100.00;101963.91;6246564;23;20000;-79
2023/06/02 00:08:40;;;;;;;5.93;3.03;;;;;;;10.37;100.00;101984.44;6196497;23;20000;-79
2023/06/02 00:11:07;;;;;;;7.85;3.95;;;;;;;10.27;100.00;101976.41;6248062;22;20050;-79
2023/06/02 00:13:33;;;;;;;7.63;4.00;;;;;;;10.15;100.00;101979.38;6246396;23;20004;-80
2023/06/02 00:15:59;;;;;;;8.90;3.97;;;;;;;9.90;100.00;101989.72;6220690;23;20012;-80
2023/06/02 00:18:25;;;;;;;12.07;4.50;;;;;;;9.66;100.00;101987.44;6220806;23;20004;-80
2023/06/02 00:20:54;;;;;;;9.27;3.80;;;;;;;9.37;100.00;101982.84;6246240;23;20083;-80
2023/06/02 00:23:20;;;;;;;8.05;4.45;;;;;;;9.28;100.00;101986.34;6195637;23;20004;-80
2023/06/02 00:25:45;;;;;;;8.30;4.13;;;;;;;9.14;100.00;101997.47;6220517;23;20015;-80
2023/06/02 00:28:11;;;;;;;7.18;3.40;;;;;;;9.08;100.00;102001.56;6220884;23;20001;-80
2023/06/02 00:30:37;;;;;;;5.70;3.22;;;;;;;9.12;100.00;102000.28;6195928;23;20398;-80
2023/06/02 00:33:04;;;;;;;7.68;4.18;;;;;;;9.09;100.00;101987.16;6195790;23;20328;-80
2023/06/02 00:35:30;;;;;;;8.15;4.35;;;;;;;9.18;100.00;102001.56;6246368;23;20333;-81
2023/06/02 00:37:55;;;;;;;8.13;4.18;;;;;;;8.98;100.00;101977.38;6220734;23;20004;-80
2023/06/02 00:40:23;;;;;;;3.85;2.33;;;;;;;8.95;100.00;101974.97;6220651;23;20010;-80
2023/06/02 00:42:49;;;;;;;6.45;3.60;;;;;;;9.06;100.00;102002.69;6245790;23;20054;-82
2023/06/02 00:45:16;;;;;;;7.28;3.95;;;;;;;9.05;100.00;101996.47;6246126;23;20008;-80
2023/06/02 00:47:41;;;;;;;8.77;4.20;;;;;;;9.07;100.00;101999.84;6245959;23;20001;-81
2023/06/02 00:50:08;;;;;;;4.43;3.25;;;;;;;9.18;100.00;101996.19;6220507;23;20002;-80
2023/06/02 00:52:33;;;;;;;7.65;3.92;;;;;;;9.33;100.00;101994.00;6245807;23;20004;-81
2023/06/02 00:55:07;;;;;;;7.05;4.43;;;;;;;9.27;100.00;101954.31;6195768;23;20004;-81
2023/06/02 00:57:34;;;;;;;9.57;5.35;;;;;;;9.67;100.00;101994.50;6197525;23;20008;-82
2023/06/02 01:00:03;;;;;;;5.68;3.20;;;;;;;9.75;100.00;101996.47;6223383;23;20012;-80
2023/06/02 01:02:28;;;;;;;9.15;5.05;;;;;;;9.72;100.00;101994.06;6247483;23;20008;-82
2023/06/02 01:04:57;;;;;;;6.55;4.32;;;;;;;9.69;100.00;101998.72;6246148;23;20015;-80
2023/06/02 01:07:25;;;;;;;9.63;4.20;;;;;;;9.55;100.00;101993.78;6245948;23;20008;-80
2023/06/02 01:09:55;;;;;;;9.10;4.38;;;;;;;9.40;100.00;101987.09;6245805;23;20000;-80
2023/06/02 01:12:22;;;;;;;2.42;1.88;;;;;;;9.39;100.00;101998.81;6220687;23;20107;-81
2023/06/02 01:14:47;;;;;;;34.20;4.35;;;;;;;9.33;100.00;102000.22;6220584;23;20121;-80
2023/06/02 01:17:13;;;;;;;8.82;4.68;;;;;;;9.38;100.00;101997.97;6220429;23;20047;-81
2023/06/02 01:19:40;;;;;;;7.55;4.05;;;;;;;9.34;100.00;101993.00;6220636;23;20000;-81
2023/06/02 01:22:08;;;;;;;5.72;3.38;;;;;;;9.34;100.00;102001.94;6195640;23;20050;-80
2023/06/02 01:24:39;;;;;;;4.78;3.47;;;;;;;9.25;100.00;102000.06;6245868;23;20450;-81
2023/06/02 01:27:09;;;;;;;10.20;4.95;;;;;;;9.24;100.00;102001.06;6220519;23;20008;-81
2023/06/02 01:29:36;;;;;;;6.15;3.30;;;;;;;9.16;100.00;102008.94;6195316;23;20004;-82
2023/06/02 01:32:08;;;;;;;5.18;3.22;;;;;;;9.12;100.00;102002.97;6245727;23;20004;-80
2023/06/02 01:34:44;;;;;;;6.07;3.38;;;;;;;9.04;100.00;101997.44;6195384;23;20011;-80
2023/06/02 01:37:11;;;;;;;7.90;4.43;;;;;;;8.96;100.00;102002.63;6194848;23;20015;-80
2023/06/02 01:39:38;;;;;;;7.82;4.78;;;;;;;9.00;100.00;102012.13;6245662;23;20000;-81
2023/06/02 01:42:05;;;;;;;9.70;4.75;;;;;;;8.94;100.00;102004.59;6195330;23;20015;-80
2023/06/02 01:44:32;;;;;;;10.18;4.90;;;;;;;8.84;100.00;102006.38;6220573;23;20015;-80
2023/06/02 01:46:57;;;;;;;9.93;4.72;;;;;;;8.88;100.00;102002.44;6245603;23;20002;-81
2023/06/02 01:49:23;;;;;;;7.32;3.90;;;;;;;8.85;100.00;101995.53;6195094;23;20032;-81
2023/06/02 01:51:48;;;;;;;4.95;3.22;;;;;;;8.94;100.00;101994.69;6195202;23;20004;-81
2023/06/02 01:54:15;;;;;;;8.52;5.30;;;;;;;8.96;100.00;102000.78;6195230;23;20004;-80
2023/06/02 01:56:40;;;;;;;7.85;5.93;;;;;;;9.01;100.00;102011.13;6195123;23;20087;-80
2023/06/02 01:59:07;;;;;;;9.13;5.15;;;;;;;9.00;100.00;102012.13;6245376;23;20042;-81
2023/06/02 02:01:33;;;;;;;9.13;4.20;;;;;;;8.91;100.00;102007.53;6220284;23;20000;-81
2023/06/02 02:04:00;;;;;;;7.97;3.80;;;;;;;8.85;100.00;102003.56;6245356;23;20516;-80
2023/06/02 02:06:32;;;;;;;6.30;3.97;;;;;;;8.72;100.00;102005.63;6220177;23;20010;-80
2023/06/02 02:08:58;;;;;;;7.95;4.43;;;;;;;8.77;100.00;102004.25;6196113;23;20008;-81
2023/06/02 02:11:26;;;;;;;10.00;4.60;;;;;;;8.66;100.00;101995.44;6245451;23;20008;-80
2023/06/02 02:13:52;;;;;;;4.65;2.40;;;;;;;8.66;100.00;102001.66;6195261;23;20008;-80
2023/06/02 02:16:18;;;;;;;11.07;5.30;;;;;;;8.63;100.00;102003.75;6245403;23;20007;-80
2023/06/02 02:18:45;;;;;;;4.78;3.03;;;;;;;8.69;100.00;102005.91;6220002;23;20028;-80
2023/06/02 02:21:12;;;;;;;5.28;3.38;;;;;;;8.69;100.00;102000.53;6195288;23;20063;-81
2023/06/02 02:23:38;;;;;;;11.27;5.57;;;;;;;8.63;100.00;102007.28;6194787;23;20053;-82
2023/06/02 02:26:06;;;;;;;8.70;4.80;;;;;;;8.62;100.00;102002.88;6194890;23;20012;-81
2023/06/02 02:28:31;;;;;;;13.38;5.80;;;;;;;8.61;100.00;101998.50;6244806;23;20000;-81
2023/06/02 02:30:57;;;;;;;10.15;4.60;;;;;;;8.44;100.00;101974.97;6194355;23;20083;-83
2023/06/02 02:33:23;;;;;;;9.95;4.90;;;;;;;8.56;100.00;102003.41;6219388;23;20008;-79
2023/06/02 02:35:48;;;;;;;8.73;4.65;;;;;;;8.43;100.00;102002.78;6194745;23;20008;-81
2023/06/02 02:38:15;;;;;;;8.82;4.70;;;;;;;8.24;100.00;101988.22;6194694;23;20011;-80
2023/06/02 02:40:41;;;;;;;11.75;5.13;;;;;;;8.26;100.00;102005.03;6219915;23;20000;-80
2023/06/02 02:43:06;;;;;;;9.88;4.10;;;;;;;8.36;100.00;101994.34;6219721;23;20011;-82
2023/06/02 02:45:32;;;;;;;5.13;2.92;;;;;;;8.40;100.00;101992.31;6219587;23;20012;-81
2023/06/02 02:47:58;;;;;;;6.25;4.60;;;;;;;8.43;100.00;102000.94;6219462;23;20012;-81
2023/06/02 02:50:23;;;;;;;12.13;5.22;;;;;;;8.41;100.00;102002.03;6219842;23;20061;-81
2023/06/02 02:52:49;;;;;;;10.65;5.07;;;;;;;8.43;100.00;102008.13;6219804;23;20325;-80
2023/06/02 02:55:14;;;;;;;9.05;4.78;;;;;;;8.40;100.00;102003.03;6194179;23;20004;-82
2023/06/02 02:57:43;;;;;;;9.60;4.65;;;;;;;8.40;100.00;102001.19;6219877;23;20014;-80
2023/06/02 03:00:09;;;;;;;8.18;4.95;;;;;;;8.43;100.00;102002.78;6244973;23;20061;-82
2023/06/02 03:02:35;;;;;;;8.93;4.85;;;;;;;8.35;100.00;101998.88;6245072;23;20011;-80
2023/06/02 03:05:02;;;;;;;11.18;4.05;;;;;;;8.32;100.00;102006.34;6244815;23;20447;-81
2023/06/02 03:07:29;;;;;;;12.45;4.85;;;;;;;8.27;100.00;102008.56;6244870;23;20011;-80
2023/06/02 03:09:56;;;;;;;7.53;3.55;;;;;;;8.31;100.00;102018.06;6244546;23;20032;-80
2023/06/02 03:12:21;;;;;;;6.65;3.65;;;;;;;8.39;100.00;102012.91;6245000;23;20000;-81
2023/06/02 03:14:47;;;;;;;8.93;5.30;;;;;;;8.39;100.00;102004.88;6194576;23;20054;-80
2023/06/02 03:17:13;;;;;;;13.52;4.78;;;;;;;8.31;100.00;102008.16;6194477;23;20011;-81
2023/06/02 03:19:39;;;;;;;9.68;5.60;;;;;;;8.38;100.00;102008.47;6219700;23;20491;-83
2023/06/02 03:22:05;;;;;;;9.27;5.18;;;;;;;8.31;100.00;102001.97;6245530;23;20008;-81
2023/06/02 03:24:30;;;;;;;5.93;3.95;;;;;;;8.36;100.00;102005.06;6220182;23;20094;-83
2023/06/02 03:26:57;;;;;;;3.65;2.85;;;;;;;8.40;100.00;102003.88;6194451;23;20097;-80
2023/06/02 03:29:23;;;;;;;6.68;4.47;;;;;;;8.31;100.00;102005.50;6219619;23;20011;-81
2023/06/02 03:31:54;;;;;;;8.98;5.20;;;;;;;8.18;100.00;102006.63;6246280;22;20004;-80
2023/06/02 03:34:22;;;;;;;10.20;4.55;;;;;;;7.98;100.00;102000.28;6194412;23;20015;-80
2023/06/02 03:36:48;;;;;;;11.93;5.05;;;;;;;7.89;100.00;101996.56;6244930;23;20035;-82
2023/06/02 03:39:15;;;;;;;3.78;2.35;;;;;;;7.93;100.00;101998.84;6194512;23;20000;-80
2023/06/02 03:41:40;;;;;;;10.75;5.35;;;;;;;7.99;100.00;101997.50;6244702;23;20000;-81
2023/06/02 03:44:06;;;;;;;8.27;4.22;;;;;;;7.96;100.00;101994.22;6194472;23;20008;-82
2023/06/02 03:46:33;;;;;;;8.63;4.50;;;;;;;8.02;100.00;101993.69;6219214;23;20095;-81
2023/06/02 03:48:59;;;;;;;12.25;5.03;;;;;;;7.97;100.00;101995.94;6219173;23;20437;-79
2023/06/02 03:51:25;;;;;;;6.07;3.53;;;;;;;7.99;100.00;101996.63;6194309;23;20011;-80
2023/06/02 03:53:50;;;;;;;8.38;4.50;;;;;;;8.03;100.00;102006.13;6219487;23;20004;-83
2023/06/02 03:56:16;;;;;;;7.63;4.18;;;;;;;8.03;100.00;102003.44;6194346;23;20058;-81
2023/06/02 03:58:42;;;;;;;8.88;4.15;;;;;;;8.01;100.00;102005.38;6194571;23;20011;-80
2023/06/02 04:01:08;;;;;;;11.40;5.43;;;;;;;7.84;100.00;101999.63;6195783;23;20381;-81
2023/06/02 04:03:36;;;;;;;10.00;5.18;;;;;;;7.65;100.00;101997.63;6221358;23;20085;-80
2023/06/02 04:06:06;;;;;;;11.45;5.57;;;;;;;7.53;100.00;101993.25;6221827;23;20007;-82
2023/06/02 04:08:32;;;;;;;9.50;4.40;;;;;;;7.41;100.00;102003.16;6172015;23;20008;-80
2023/06/02 04:10:58;;;;;;;11.52;4.82;;;;;;;7.45;100.00;101996.56;6246395;23;20428;-82
2023/06/02 04:13:24;;;;;;;9.77;4.30;;;;;;;7.49;100.00;101994.50;6196147;23;20008;-81
2023/06/02 04:15:49;;;;;;;9.43;4.97;;;;;;;7.41;100.00;101971.03;6220995;23;20008;-81
2023/06/02 04:18:15;;;;;;;9.52;4.45;;;;;;;7.61;100.00;101998.00;6195982;23;20047;-81
2023/06/02 04:20:41;;;;;;;11.32;5.13;;;;;;;7.56;100.00;101989.50;6221047;23;20007;-82
2023/06/02 04:23:06;;;;;;;8.70;4.75;;;;;;;7.53;100.00;101995.09;6220860;23;20005;-81
2023/06/02 04:25:32;;;;;;;7.57;3.83;;;;;;;7.45;100.00;101960.94;6221301;23;20004;-80
2023/06/02 04:27:58;;;;;;;12.57;5.13;;;;;;;7.72;100.00;101992.59;6247347;22;19996;-81
2023/06/02 04:30:23;;;;;;;5.88;3.15;;;;;;;7.83;100.00;101994.38;6221052;23;20004;-81
2023/06/02 04:32:49;;;;;;;8.32;4.53;;;;;;;7.88;100.00;101997.53;6195963;23;20008;-81
2023/06/02 04:35:16;;;;;;;5.20;3.42;;;;;;;8.00;100.00;102003.69;6246321;23;20000;-81
2023/06/02 04:37:44;;;;;;;9.68;5.00;;;;;;;8.08;100.00;102001.22;6195963;23;20005;-81
2023/06/02 04:40:10;;;;;;;10.82;4.72;;;;;;;8.21;100.00;101988.50;6221309;23;20328;-81
2023/06/02 04:42:38;;;;;;;6.32;3.78;;;;;;;8.28;100.00;101991.47;6196051;23;20058;-81
2023/06/02 04:45:11;;;;;;;9.90;5.07;;;;;;;8.23;100.00;101974.94;6246011;23;20004;-81
2023/06/02 04:47:37;;;;;;;11.50;5.28;;;;;;;8.31;100.00;101985.88;6246066;23;20018;-80
2023/06/02 04:50:03;;;;;;;8.38;3.83;;;;;;;8.46;100.00;101987.25;6246021;23;20000;-80
2023/06/02 04:52:28;;;;;;;16.05;6.10;;;;;;;8.54;100.00;101989.28;6220865;23;20087;-83
2023/06/02 04:54:54;;;;;;;12.05;5.68;;;;;;;8.62;100.00;101986.78;6195708;23;20042;-81
2023/06/02 04:57:20;;;;;;;10.93;5.82;;;;;;;8.65;100.00;101975.78;6220738;23;20126;-80
2023/06/02 04:59:45;;;;;;;6.75;4.20;;;;;;;8.73;100.00;101978.69;6220239;23;20008;-81
2023/06/02 05:02:12;;;;;;;12.32;6.30;;;;;;;8.89;100.00;101991.59;6246189;23;20364;-81
2023/06/02 05:04:37;;;;;;;10.90;4.97;;;;;;;9.01;100.00;101984.28;6245779;23;20004;-83
2023/06/02 05:07:04;;;;;;;10.50;5.30;;;;;;;9.21;100.00;101995.97;6220343;23;20000;-82
2023/06/02 05:09:30;;;;;;;13.07;5.75;;;;;;;9.78;100.00;101988.97;6246207;23;20006;-82
2023/06/02 05:11:55;;;;;;;10.60;5.43;;;;;;;10.45;100.00;101979.22;6220495;23;20079;-81
2023/06/02 05:14:21;;;;;;;7.65;4.38;;;;;;;11.07;100.00;101995.69;6247375;22;20413;-81
2023/06/02 05:16:46;;;;;;;11.65;6.28;;;;;;;11.35;100.00;101957.97;6220605;23;20004;-82
2023/06/02 05:19:12;;;;;;;9.27;5.22;;;;;;;11.85;100.00;101993.38;6195536;23;20325;-80
2023/06/02 05:21:38;;;;;;;12.43;6.00;;;;;;;11.83;100.00;101998.06;6195479;23;20008;-81
2023/06/02 05:24:03;;;;;;;5.75;4.65;;;;;;;12.17;100.00;102000.09;6220271;23;20323;-81
2023/06/02 05:26:29;;;;;;;10.40;5.43;;;;;;;12.53;100.00;102006.25;6195275;23;20015;-84
2023/06/02 05:28:55;;;;;;;9.70;5.38;;;;;;;12.90;100.00;102010.53;6220346;23;20333;-80
2023/06/02 05:31:20;;;;;;;10.65;7.40;;;;;;;13.18;100.00;101994.97;6220021;23;20012;-81
2023/06/02 05:33:46;;;;;;;8.98;5.63;;;;;;;12.82;100.00;101998.84;6245616;23;20103;-81
2023/06/02 05:36:11;;;;;;;7.53;4.53;;;;;;;12.32;100.00;102000.34;6245811;23;20000;-81
2023/06/02 05:38:44;;;;;;;8.10;5.65;;;;;;;12.13;100.00;102011.34;6220401;23;20004;-81
2023/06/02 05:41:10;;;;;;;6.35;3.92;;;;;;;12.05;100.00;102006.72;6220941;23;20079;-81
2023/06/02 05:43:36;;;;;;;9.07;5.18;;;;;;;12.80;100.00;102011.63;6221616;23;20011;-81
2023/06/02 05:46:01;;;;;;;4.50;3.53;;;;;;;13.60;100.00;102002.22;6195912;23;20099;-81
2023/06/02 05:48:27;;;;;;;8.95;4.88;;;;;;;14.21;100.00;101999.22;6220249;23;20483;-82
2023/06/02 05:50:53;;;;;;;10.75;4.40;;;;;;;14.57;100.00;102001.59;6220826;23;20008;-82
2023/06/02 05:53:18;;;;;;;9.50;4.30;;;;;;;14.92;100.00;102008.44;6232750;23;20341;-81
2023/06/02 05:55:44;;;;;;;8.18;3.95;;;;;;;15.31;99.96;102011.19;6201328;23;20428;-82
2023/06/02 05:58:10;;;;;;;10.63;5.88;;;;;;;15.51;97.66;102005.34;6247140;22;20342;-82
2023/06/02 06:00:35;;;;;;;10.15;4.97;;;;;;;15.69;97.39;102008.66;6220009;23;20074;-82
2023/06/02 06:03:01;;;;;;;8.15;5.20;;;;;;;15.97;93.80;102019.81;6195068;23;20329;-82
2023/06/02 06:05:27;;;;;;;6.35;5.00;;;;;;;16.11;95.87;102010.03;6246617;22;20007;-82
2023/06/02 06:07:52;;;;;;;7.78;4.63;;;;;;;16.53;92.79;102002.38;6219965;23;20421;-83
2023/06/02 06:10:18;;;;;;;8.70;5.65;;;;;;;16.73;90.34;102017.13;6220118;23;20019;-82
2023/06/02 06:12:44;;;;;;;8.95;5.60;;;;;;;16.92;90.25;102019.31;6194899;23;20425;-81
2023/06/02 06:15:10;;;;;;;9.10;5.35;;;;;;;17.27;86.26;102010.56;6194890;23;20008;-83
2023/06/02 06:17:52;;;;;;;8.93;4.53;;;;;;;17.40;84.67;102026.22;6245402;23;20083;-82
2023/06/02 06:20:18;;;;;;;;;;;;;;;17.62;85.96;102021.66;6195681;23;20032;-83
2023/06/02 06:22:44;;;;;;;8.90;4.63;;;;;;;17.98;82.97;102017.06;6219581;23;20243;-81
2023/06/02 06:25:10;;;;;;;6.68;5.00;;;;;;;18.28;79.06;102008.75;6195027;23;20012;-82
2023/06/02 06:27:36;;;;;;;4.18;3.53;;;;;;;18.57;74.26;102021.31;6219759;23;20028;-81
2023/06/02 06:30:03;;;;;;;6.93;5.35;;;;;;;18.38;74.70;102014.69;6194903;23;20061;-81
2023/06/02 06:32:29;;;;;;;6.57;4.97;;;;;;;18.31;77.24;102013.81;6245421;23;20001;-80
2023/06/02 06:34:55;;;;;;;6.95;4.55;;;;;;;18.52;76.35;102018.34;6244839;23;20019;-81
2023/06/02 06:37:21;;;;;;;7.45;4.55;;;;;;;18.64;72.90;102014.06;6219815;23;20012;-81
2023/06/02 06:39:46;;;;;;;5.78;3.70;;;;;;;18.63;75.01;102009.66;6194720;23;20421;-82
2023/06/02 06:42:12;;;;;;;8.70;5.25;;;;;;;19.00;72.16;102028.56;6245206;23;20003;-81
2023/06/02 06:44:38;;;;;;;5.45;3.92;;;;;;;19.20;73.89;102029.50;6244874;23;20385;-81
2023/06/02 06:47:04;;;;;;;5.95;5.10;;;;;;;19.40;64.12;102018.72;6194799;23;20034;-81
2023/06/02 06:49:29;;;;;;;7.28;5.68;;;;;;;19.10;64.37;102023.59;6194474;23;20083;-81
2023/06/02 06:51:55;;;;;;;9.13;5.32;;;;;;;19.05;71.02;102032.41;6219653;23;20094;-81
2023/06/02 06:54:20;;;;;;;7.13;5.00;;;;;;;19.33;69.07;102015.94;6219781;23;19996;-81
2023/06/02 06:56:46;;;;;;;5.63;4.28;;;;;;;19.65;64.78;102019.00;6245458;23;20011;-82
2023/06/02 06:59:12;;;;;;;6.85;4.65;;;;;;;19.74;64.35;102034.19;6219759;23;20031;-81
2023/06/02 07:01:38;;;;;;;7.38;4.60;;;;;;;19.89;67.57;102023.06;6245127;23;20008;-80
2023/06/02 07:04:04;;;;;;;10.30;5.25;;;;;;;20.48;65.58;102023.31;6195087;23;20015;-82
2023/06/02 07:06:31;;;;;;;6.10;5.35;;;;;;;20.91;60.22;102009.22;6245327;23;20004;-81
2023/06/02 07:08:56;;;;;;;6.88;4.68;;;;;;;20.86;60.74;102012.59;6219536;23;20000;-81
2023/06/02 07:11:22;;;;;;;6.47;5.18;;;;;;;20.97;57.07;102024.78;6244694;23;20007;-81
2023/06/02 07:13:47;;;;;;;6.65;4.78;;;;;;;20.93;56.87;102004.38;6219713;23;20031;-82
2023/06/02 07:16:13;;;;;;;6.20;4.30;;;;;;;21.13;56.91;102027.03;6244827;23;20004;-81
2023/06/02 07:18:39;;;;;;;5.97;4.80;;;;;;;21.02;53.72;102024.97;6219630;23;20047;-80
2023/06/02 07:21:05;;;;;;;5.18;3.85;;;;;;;20.93;53.74;102024.38;6194977;23;20008;-80
2023/06/02 07:23:30;;;;;;;8.90;5.93;;;;;;;20.95;54.58;102018.66;6194664;23;20421;-80
2023/06/02 07:25:58;;;;;;;6.90;5.40;;;;;;;20.98;54.71;102031.91;6193960;23;20028;-83
2023/06/02 07:28:24;;;;;;;7.90;5.00;;;;;;;21.08;56.60;102022.19;6194950;23;20000;-80
2023/06/02 07:30:52;;;;;;;5.50;4.43;;;;;;;21.48;54.14;102013.88;6219629;23;20004;-81
2023/06/02 07:33:18;;;;;;;4.90;4.40;;;;;;;21.76;52.05;102018.16;6220462;23;20011;-81
2023/06/02 07:35:44;;;;;;;6.00;3.83;;;;;;;21.97;52.63;102027.94;6221654;23;20078;-81
2023/06/02 07:38:10;;;;;;;6.75;4.00;;;;;;;22.21;51.66;102029.03;6221156;23;20062;-81
2023/06/02 07:40:36;;;;;;;8.90;4.70;;;;;;;22.37;51.71;102025.75;6246803;23;20007;-81
2023/06/02 07:43:02;;;;;;;5.35;3.53;;;;;;;22.59;51.32;102028.09;6221401;23;20005;-80
2023/06/02 07:45:28;;;;;;;6.95;4.10;;;;;;;22.81;51.58;102018.38;6248215;22;20063;-80
2023/06/02 07:47:54;;;;;;;6.13;4.28;;;;;;;23.19;50.59;102027.50;6196346;23;20114;-80
2023/06/02 07:50:20;;;;;;;10.07;4.80;;;;;;;23.31;48.17;102028.38;6196267;23;20014;-81
2023/06/02 07:52:46;;;;;;;5.28;3.88;;;;;;;23.31;47.44;102019.31;6246198;23;20016;-80
2023/06/02 07:55:15;;;;;;;5.22;3.97;;;;;;;23.28;46.28;102017.88;6221091;23;20421;-80
2023/06/02 07:57:43;;;;;;;5.40;4.50;;;;;;;23.61;48.97;102031.19;6198278;23;20050;-79
2023/06/02 08:00:15;;;;;;;4.93;4.22;;;;;;;24.17;44.99;102028.28;6223155;23;20237;-79
2023/06/02 08:02:48;;;;;;;6.88;3.55;;;;;;;23.90;46.20;102036.94;6196965;23;20012;-80
2023/06/02 08:05:15;;;;;;;3.83;2.55;;;;;;;24.24;47.05;102034.50;6246470;23;20012;-80
2023/06/02 08:07:41;;;;;;;4.97;3.40;;;;;;;24.36;44.98;102024.38;6221018;23;20000;-81
2023/06/02 08:10:07;;;;;;;6.95;4.95;;;;;;;24.46;46.20;102035.66;6246407;23;20123;-80
2023/06/02 08:12:34;;;;;;;7.18;5.07;;;;;;;24.44;43.60;102024.03;6196460;23;20084;-80
2023/06/02 08:15:00;;;;;;;7.05;5.03;;;;;;;24.23;44.95;102038.31;6221072;23;20078;-81
2023/06/02 08:17:29;;;;;;;8.50;5.57;;;;;;;24.25;46.19;102030.69;6196342;23;20024;-81
2023/06/02 08:19:59;;;;;;;5.68;4.32;;;;;;;24.47;45.03;102034.56;6221492;23;20008;-78
2023/06/02 08:22:26;;;;;;;6.63;4.15;;;;;;;24.35;45.06;102033.69;6246643;23;20004;-79
2023/06/02 08:24:56;;;;;;;6.68;4.90;;;;;;;24.22;44.69;102036.66;6246297;23;20439;-78
2023/06/02 08:27:23;;;;;;;5.68;4.28;;;;;;;24.43;45.46;102043.50;6246414;23;20000;-79
2023/06/02 08:29:49;;;;;;;6.05;4.25;;;;;;;24.97;44.53;102039.56;6196148;23;20379;-82
2023/06/02 08:32:17;;;;;;;9.52;5.55;;;;;;;25.58;43.90;102041.97;6195950;23;20027;-81
2023/06/02 08:34:47;;;;;;;4.47;3.55;;;;;;;25.94;41.18;102038.03;6221032;23;20008;-82
2023/06/02 08:37:17;;;;;;;6.75;4.93;;;;;;;25.85;42.99;102034.84;6220815;23;20001;-80
2023/06/02 08:39:50;;;;;;;5.80;4.47;;;;;;;25.85;40.57;102045.84;6221596;23;20062;-81
2023/06/02 08:42:17;;;;;;;6.72;4.68;;;;;;;25.42;41.86;102033.41;6219948;23;20095;-81
2023/06/02 08:44:43;;;;;;;5.25;4.40;;;;;;;25.30;43.07;102027.13;6246005;23;20075;-81
2023/06/02 08:47:11;;;;;;;4.90;3.85;;;;;;;25.54;42.84;102032.53;6245896;23;20083;-79
2023/06/02 08:49:41;;;;;;;5.80;3.75;;;;;;;25.82;41.60;102035.28;6220806;23;20004;-80
2023/06/02 08:52:15;;;;;;;7.05;4.40;;;;;;;25.95;42.67;102038.84;6220820;23;20016;-79
2023/06/02 08:54:42;;;;;;;6.53;4.10;;;;;;;26.19;43.15;102036.78;6171519;23;20011;-80
2023/06/02 08:57:09;;;;;;;5.28;4.03;;;;;;;26.80;42.70;102034.19;6220942;23;19996;-80
2023/06/02 08:59:36;;;;;;;6.68;4.10;;;;;;;27.11;39.15;102029.94;6221179;23;20016;-79
2023/06/02 09:02:01;;;;;;;6.38;4.90;;;;;;;26.88;39.27;102028.22;6195620;23;20000;-79
2023/06/02 09:04:27;;;;;;;5.85;4.00;;;;;;;26.61;39.08;102012.41;6195549;23;20007;-79
2023/06/02 09:07:11;;;;;;;8.32;4.47;;;;;;;26.34;40.14;102041.72;6247635;23;20026;-78
2023/06/02 09:09:49;;;;;;;7.45;4.43;;;;;;;26.55;42.43;102037.41;6195556;23;20447;-78
2023/06/02 09:12:15;;;;;;;6.72;4.57;;;;;;;27.25;41.18;102030.41;6221024;23;20000;-78
2023/06/02 09:14:41;;;;;;;5.70;3.97;;;;;;;27.91;38.68;102024.81;6220665;23;20004;-79
2023/06/02 09:17:25;;;;;;;6.95;3.83;;;;;;;27.19;38.62;102026.75;6220650;23;20008;-78
2023/06/02 09:19:52;;;;;;;6.75;4.30;;;;;;;26.77;39.46;102012.63;6195742;23;20000;-79
2023/06/02 09:22:17;;;;;;;7.72;4.65;;;;;;;27.17;40.05;102028.94;6195605;23;20004;-79
2023/06/02 09:24:43;;;;;;;7.15;4.40;;;;;;;27.58;39.08;102032.19;6195384;23;20004;-79
2023/06/02 09:27:13;;;;;;;7.38;4.38;;;;;;;27.65;38.85;102023.69;6170903;23;20043;-79
2023/06/02 09:29:40;;;;;;;5.57;3.67;;;;;;;27.88;37.54;102015.13;6195265;23;20437;-80
2023/06/02 09:32:16;;;;;;;3.95;2.75;;;;;;;28.35;37.54;102019.13;6170439;23;20012;-80
2023/06/02 09:34:44;;;;;;;5.60;4.13;;;;;;;28.42;36.44;102009.50;6221115;23;20046;-79
2023/06/02 09:37:14;;;;;;;7.13;4.82;;;;;;;28.83;36.92;102015.31;6195504;23;20083;-80
2023/06/02 09:39:56;;;;;;;8.43;4.90;;;;;;;28.99;35.70;102012.63;6170676;23;20008;-78
2023/06/02 09:42:23;;;;;;;5.78;4.28;;;;;;;29.02;35.27;102010.16;6197732;23;20508;-79
2023/06/02 09:45:08;;;;;;;6.95;4.53;;;;;;;28.77;35.72;102008.09;6220392;23;20027;-78
2023/06/02 09:47:41;;;;;;;6.90;4.45;;;;;;;28.99;35.83;102012.63;6220193;23;20004;-78
2023/06/02 09:50:07;;;;;;;6.80;3.75;;;;;;;28.97;35.50;102021.19;6195164;23;20034;-78
2023/06/02 09:52:33;;;;;;;5.25;4.20;;;;;;;28.81;35.18;102019.44;6219969;23;20058;-78
2023/06/02 09:54:59;;;;;;;6.22;4.00;;;;;;;28.74;35.52;102021.63;6170015;23;20012;-80
2023/06/02 09:57:25;;;;;;;6.65;4.40;;;;;;;28.90;36.56;102021.44;6169763;23;20005;-79
2023/06/02 09:59:52;;;;;;;5.88;4.28;;;;;;;28.88;35.93;102020.88;6172279;23;20016;-80
2023/06/02 10:02:18;;;;;;;6.80;4.13;;;;;;;28.94;35.08;102017.03;6194733;23;20008;-80
2023/06/02 10:04:47;;;;;;;4.95;3.90;;;;;;;29.02;35.33;102010.16;6195354;23;20117;-79
2023/06/02 10:07:27;;;;;;;7.25;4.57;;;;;;;29.35;33.87;102025.56;6246922;23;20435;-79
2023/06/02 10:10:14;;;;;;;7.55;4.90;;;;;;;29.13;35.76;102019.38;6245329;23;20383;-80
2023/06/02 10:12:55;;;;;;;6.47;4.30;;;;;;;29.29;35.00;102028.56;6245310;23;20000;-79
2023/06/02 10:15:26;;;;;;;8.02;4.57;;;;;;;29.56;35.14;102020.09;6220442;23;20008;-80
2023/06/02 10:18:27;;;;;;;7.40;4.47;;;;;;;29.23;34.21;102022.19;6243076;23;20081;-86
2023/06/02 10:21:12;;;;;;;6.15;3.25;;;;;;;29.07;35.84;102026.81;6145557;23;20082;-83
2023/06/02 10:23:56;;;;;;;;;;;;;;;29.18;36.62;102030.47;6220156;23;20088;-83
2023/06/02 10:26:59;;;;;;;6.10;3.92;;;;;;;29.33;34.75;102026.94;6246616;23;19903;-82
2023/06/02 10:29:25;;;;;;;8.07;4.22;;;;;;;29.15;36.21;102028.25;6219938;23;20012;-84
2023/06/02 10:31:51;;;;;;;6.60;4.50;;;;;;;29.40;34.92;102019.22;6245279;23;20007;-86
2023/06/02 10:34:37;;;;;;;5.18;4.05;;;;;;;29.33;34.71;102024.16;6194837;23;20008;-83
2023/06/02 10:37:06;;;;;;;7.50;4.05;;;;;;;29.50;35.32;102026.69;6247139;22;20083;-84
2023/06/02 10:39:35;;;;;;;5.68;3.83;;;;;;;29.35;34.72;102003.41;6244936;23;20440;-82
2023/06/02 10:42:12;;;;;;;4.25;3.85;;;;;;;29.17;34.19;102014.97;6244882;23;20000;-81
2023/06/02 10:44:37;;;;;;;8.55;4.72;;;;;;;29.12;36.27;102020.47;6194900;23;20054;-84
2023/06/02 10:47:18;;;;;;;7.35;4.40;;;;;;;29.27;34.31;102015.00;6194636;23;20012;-84
2023/06/02 10:49:51;;;;;;;8.80;4.20;;;;;;;28.99;36.80;101988.53;6246370;23;20065;-82
2023/06/02 10:52:16;;;;;;;5.53;4.40;;;;;;;29.33;34.29;102011.13;6219665;23;20031;-86
2023/06/02 10:54:42;;;;;;;5.50;4.88;;;;;;;29.09;35.56;102008.00;6245114;23;20441;-85
2023/06/02 10:57:09;;;;;;;8.63;4.60;;;;;;;29.81;36.07;102013.78;6245011;23;20000;-84
2023/06/02 10:59:36;;;;;;;5.80;4.47;;;;;;;29.98;33.75;102000.50;6244978;23;20011;-83
2023/06/02 11:02:03;;;;;;;6.30;4.60;;;;;;;29.77;34.67;102009.88;6199871;23;19996;-83
2023/06/02 11:04:33;;;;;;;6.78;4.50;;;;;;;29.80;35.16;102004.63;6174089;23;20012;-81
2023/06/02 11:07:28;;;;;;;5.32;4.05;;;;;;;30.12;33.85;102006.31;6169866;23;20550;-83
2023/06/02 11:10:00;;;;;;;5.57;3.85;;;;;;;30.75;32.71;101999.56;6198960;23;20007;-82
2023/06/02 11:12:51;;;;;;;6.38;4.60;;;;;;;30.52;34.70;102003.81;6173069;23;20478;-86
2023/06/02 11:15:18;;;;;;;7.45;4.82;;;;;;;30.83;33.78;102010.13;6197537;23;20008;-83
2023/06/02 11:17:47;;;;;;;6.68;4.47;;;;;;;31.01;33.14;102001.19;6223035;23;20011;-82
2023/06/02 11:20:13;;;;;;;7.68;4.28;;;;;;;30.92;32.96;101999.28;6198003;23;20444;-83
2023/06/02 11:22:39;;;;;;;5.63;4.40;;;;;;;30.94;32.44;101999.84;6249425;23;20027;-83
2023/06/02 11:25:05;;;;;;;6.47;4.32;;;;;;;30.51;31.83;102000.22;6197391;23;20329;-83
2023/06/02 11:27:43;;;;;;;6.15;5.00;;;;;;;29.98;33.57;101981.09;6197639;23;20000;-82